createdAt,value
2022-09-09T00:00:36.864Z,99881.00
2022-09-09T00:03:09.673Z,99882.00
2022-09-09T00:05:49.493Z,99875.00
2022-09-09T00:08:24.163Z,99874.00
2022-09-09T00:11:00.293Z,99881.00
2022-09-09T00:13:34.590Z,99872.00
2022-09-09T00:16:17.494Z,99868.00
2022-09-09T00:19:04.535Z,99865.00
2022-09-09T00:21:38.218Z,99873.00
2022-09-09T00:24:47.470Z,99871.00
2022-09-09T00:27:32.800Z,99868.00
2022-09-09T00:30:33.733Z,99874.00
2022-09-09T00:33:06.030Z,99874.00
2022-09-09T00:35:45.011Z,99881.00
2022-09-09T00:38:34.577Z,99875.00
2022-09-09T00:41:22.088Z,99877.00
2022-09-09T00:44:21.406Z,99859.00
2022-09-09T00:46:58.079Z,99861.00
2022-09-09T00:49:34.852Z,99861.00
2022-09-09T00:52:39.792Z,99857.00
2022-09-09T00:55:07.679Z,99859.00
2022-09-09T00:57:37.344Z,99862.00
2022-09-09T01:00:43.975Z,99861.00
2022-09-09T01:03:38.750Z,99870.00
2022-09-09T01:06:17.337Z,99861.00
2022-09-09T01:09:10.193Z,99861.00
2022-09-09T01:11:46.947Z,99864.00
2022-09-09T01:14:38.117Z,99868.00
2022-09-09T01:17:26.815Z,99862.00
2022-09-09T01:20:23.892Z,99870.00
2022-09-09T01:23:11.383Z,99870.00
2022-09-09T01:25:45.551Z,99866.00
2022-09-09T01:28:28.796Z,99874.00
2022-09-09T01:31:03.774Z,99866.00
2022-09-09T01:33:38.394Z,99869.00
2022-09-09T01:36:44.117Z,99865.00
2022-09-09T01:39:13.037Z,99865.00
2022-09-09T01:41:41.628Z,99859.00
2022-09-09T01:44:13.410Z,99856.00
2022-09-09T01:46:45.165Z,99856.00
2022-09-09T01:49:19.127Z,99855.00
2022-09-09T01:51:50.896Z,99851.00
2022-09-09T01:54:22.562Z,99852.00
2022-09-09T01:57:15.402Z,99856.00
2022-09-09T02:00:08.015Z,99858.00
2022-09-09T02:02:59.489Z,99858.00
2022-09-09T02:06:01.717Z,99861.00
2022-09-09T02:08:51.228Z,99855.00
2022-09-09T02:11:21.205Z,99856.00
2022-09-09T02:14:29.317Z,99858.00
2022-09-09T02:17:11.182Z,99854.00
2022-09-09T02:20:05.458Z,99859.00
2022-09-09T02:22:45.386Z,99854.00
2022-09-09T02:25:17.285Z,99853.00
2022-09-09T02:27:47.713Z,99857.00
2022-09-09T02:30:16.417Z,99859.00
2022-09-09T02:32:53.497Z,99855.00
2022-09-09T02:35:25.568Z,99851.00
2022-09-09T02:37:55.242Z,99848.00
2022-09-09T02:40:24.528Z,99851.00
2022-09-09T02:43:01.251Z,99847.00
2022-09-09T02:45:49.209Z,99855.00
2022-09-09T02:48:26.547Z,99849.00
2022-09-09T02:51:03.032Z,99842.00
2022-09-09T02:53:58.135Z,99848.00
2022-09-09T02:56:29.868Z,99847.00
2022-09-09T02:58:58.870Z,99854.00
2022-09-09T03:01:27.914Z,99856.00
2022-09-09T03:03:56.551Z,99856.00
2022-09-09T03:06:25.197Z,99850.00
2022-09-09T03:09:12.180Z,99854.00
2022-09-09T03:11:40.375Z,99852.00
2022-09-09T03:14:09.756Z,99856.00
2022-09-09T03:16:38.367Z,99853.00
2022-09-09T03:19:07.585Z,99860.00
2022-09-09T03:21:35.616Z,99857.00
2022-09-09T03:24:04.737Z,99861.00
2022-09-09T03:26:33.186Z,99856.00
2022-09-09T03:29:02.006Z,99855.00
2022-09-09T03:31:31.853Z,99848.00
2022-09-09T03:34:00.935Z,99850.00
2022-09-09T03:36:32.467Z,99853.00
2022-09-09T03:39:01.679Z,99847.00
2022-09-09T03:41:32.380Z,99844.00
2022-09-09T03:44:02.605Z,99849.00
2022-09-09T03:46:35.105Z,99856.00
2022-09-09T03:49:03.591Z,99852.00
2022-09-09T03:51:38.021Z,99847.00
2022-09-09T03:54:09.450Z,99841.00
2022-09-09T03:56:38.388Z,99845.00
2022-09-09T03:59:06.780Z,99841.00
2022-09-09T04:01:35.084Z,99836.00
2022-09-09T04:04:03.440Z,99838.00
2022-09-09T04:06:31.611Z,99840.00
2022-09-09T04:08:59.601Z,99846.00
2022-09-09T04:11:28.204Z,99842.00
2022-09-09T04:13:58.784Z,99844.00
2022-09-09T04:16:27.284Z,99838.00
2022-09-09T04:18:55.335Z,99845.00
2022-09-09T04:21:23.228Z,99845.00
2022-09-09T04:23:52.054Z,99849.00
2022-09-09T04:26:21.259Z,99854.00
2022-09-09T04:28:49.112Z,99846.00
2022-09-09T04:31:24.082Z,99851.00
2022-09-09T04:33:55.143Z,99854.00
2022-09-09T04:36:23.579Z,99858.00
2022-09-09T04:38:55.656Z,99866.00
2022-09-09T04:41:23.832Z,99860.00
2022-09-09T04:43:54.763Z,99865.00
2022-09-09T04:46:24.861Z,99867.00
2022-09-09T04:48:53.910Z,99866.00
2022-09-09T04:51:23.878Z,99868.00
2022-09-09T04:53:55.228Z,99860.00
2022-09-09T04:56:23.566Z,99873.00
2022-09-09T04:58:57.281Z,99863.00
2022-09-09T05:01:33.845Z,99868.00
2022-09-09T05:04:05.211Z,99860.00
2022-09-09T05:06:36.531Z,99861.00
2022-09-09T05:09:05.362Z,99864.00
2022-09-09T05:11:40.040Z,99862.00
2022-09-09T05:14:16.286Z,99868.00
2022-09-09T05:16:48.049Z,99877.00
2022-09-09T05:19:21.909Z,99876.00
2022-09-09T05:21:51.519Z,99871.00
2022-09-09T05:24:27.591Z,99876.00
2022-09-09T05:27:02.698Z,99878.00
2022-09-09T05:29:34.806Z,99880.00
2022-09-09T05:32:06.053Z,99881.00
2022-09-09T05:34:40.008Z,99880.00
2022-09-09T05:37:09.339Z,99885.00
2022-09-09T05:39:39.273Z,99888.00
2022-09-09T05:42:07.811Z,99889.00
2022-09-09T05:44:36.198Z,99890.00
2022-09-09T05:47:12.160Z,99896.00
2022-09-09T05:49:40.318Z,99891.00
2022-09-09T05:52:08.282Z,99893.00
2022-09-09T05:54:36.210Z,99902.00
2022-09-09T05:57:04.939Z,99897.00
2022-09-09T05:59:33.499Z,99891.00
2022-09-09T06:02:02.664Z,99884.00
2022-09-09T06:04:37.217Z,99891.00
2022-09-09T06:07:06.583Z,99890.00
2022-09-09T06:09:34.631Z,99887.00
2022-09-09T06:12:03.120Z,99898.00
2022-09-09T06:14:34.576Z,99897.00
2022-09-09T06:17:04.012Z,99898.00
2022-09-09T06:19:32.583Z,99895.00
2022-09-09T06:22:01.808Z,99891.00
2022-09-09T06:24:32.781Z,99894.00
2022-09-09T06:27:02.450Z,99893.00
2022-09-09T06:29:35.996Z,99903.00
2022-09-09T06:32:05.329Z,99907.00
2022-09-09T06:34:37.649Z,99896.00
2022-09-09T06:37:07.638Z,99905.00
2022-09-09T06:39:47.124Z,99905.00
2022-09-09T06:42:16.905Z,99905.00
2022-09-09T06:44:50.857Z,99903.00
2022-09-09T06:47:36.029Z,99905.00
2022-09-09T06:50:09.375Z,99905.00
2022-09-09T06:52:40.890Z,99899.00
2022-09-09T06:55:11.293Z,99899.00
2022-09-09T06:57:39.920Z,99907.00
2022-09-09T07:00:15.601Z,99900.00
2022-09-09T07:02:43.734Z,99908.00
2022-09-09T07:05:14.122Z,99897.00
2022-09-09T07:07:55.875Z,99901.00
2022-09-09T07:10:24.731Z,99906.00
2022-09-09T07:12:54.333Z,99909.00
2022-09-09T07:15:25.129Z,99902.00
2022-09-09T07:17:54.376Z,99897.00
2022-09-09T07:20:23.353Z,99903.00
2022-09-09T07:23:07.737Z,99912.00
2022-09-09T07:25:35.851Z,99909.00
2022-09-09T07:28:05.256Z,99909.00
2022-09-09T07:30:34.131Z,99899.00
2022-09-09T07:33:05.262Z,99914.00
2022-09-09T07:35:34.978Z,99905.00
2022-09-09T07:38:04.552Z,99905.00
2022-09-09T07:40:33.911Z,99917.00
2022-09-09T07:43:17.319Z,99910.00
2022-09-09T07:45:59.851Z,99914.00
2022-09-09T07:48:32.021Z,99913.00
2022-09-09T07:51:13.133Z,99907.00
2022-09-09T07:53:45.946Z,99906.00
2022-09-09T07:56:17.925Z,99919.00
2022-09-09T07:58:49.302Z,99911.00
2022-09-09T08:01:36.840Z,99914.00
2022-09-09T08:04:30.828Z,99913.00
2022-09-09T08:07:02.659Z,99929.00
2022-09-09T08:09:34.927Z,99929.00
2022-09-09T08:12:12.107Z,99932.00
2022-09-09T08:14:41.287Z,99930.00
2022-09-09T08:17:09.481Z,99929.00
2022-09-09T08:19:40.789Z,99931.00
2022-09-09T08:22:14.024Z,99930.00
2022-09-09T08:24:44.224Z,99929.00
2022-09-09T08:27:12.363Z,99934.00
2022-09-09T08:29:40.680Z,99930.00
2022-09-09T08:32:18.238Z,99937.00
2022-09-09T08:34:54.633Z,99947.00
2022-09-09T08:37:57.692Z,99959.00
2022-09-09T08:40:44.940Z,99950.00
2022-09-09T08:43:15.479Z,99952.00
2022-09-09T08:46:12.119Z,99956.00
2022-09-09T08:48:57.065Z,99958.00
2022-09-09T08:51:30.201Z,99972.00
2022-09-09T08:54:00.017Z,99970.00
2022-09-09T08:56:29.995Z,99973.00
2022-09-09T08:59:02.356Z,99962.00
2022-09-09T09:01:54.539Z,99949.00
2022-09-09T09:04:56.160Z,99956.00
2022-09-09T09:07:41.670Z,99949.00
2022-09-09T09:10:43.054Z,99957.00
2022-09-09T09:13:48.863Z,99954.00
2022-09-09T09:16:45.011Z,99964.00
2022-09-09T09:19:17.862Z,99978.00
2022-09-09T09:25:42.139Z,99959.00
2022-09-09T09:28:19.784Z,99963.00
2022-09-09T09:31:19.351Z,99961.00
2022-09-09T09:33:59.436Z,99960.00
2022-09-09T09:36:47.997Z,99967.00
2022-09-09T09:42:24.047Z,99960.00
2022-09-09T09:44:55.174Z,99971.00
2022-09-09T09:47:30.881Z,99957.00
2022-09-09T09:50:22.068Z,99948.00
2022-09-09T09:56:02.780Z,99959.00
2022-09-09T09:58:35.984Z,99962.00
2022-09-09T10:01:04.129Z,99973.00
2022-09-09T10:06:45.224Z,99955.00
2022-09-09T10:09:26.717Z,99956.00
2022-09-09T10:12:17.199Z,99962.00
2022-09-09T10:15:43.715Z,99946.00
2022-09-09T10:19:11.752Z,99943.00
2022-09-09T10:22:35.779Z,99952.00
2022-09-09T10:25:18.753Z,99942.00
2022-09-09T10:27:58.990Z,99934.00
2022-09-09T10:30:55.630Z,99938.00
2022-09-09T10:33:49.762Z,99942.00
2022-09-09T10:36:22.285Z,99947.00
2022-09-09T10:39:00.925Z,99938.00
2022-09-09T10:41:49.747Z,99939.00
2022-09-09T10:44:20.767Z,99936.00
2022-09-09T10:47:02.031Z,99942.00
2022-09-09T10:49:44.505Z,99937.00
2022-09-09T10:52:43.560Z,99942.00
2022-09-09T10:55:20.264Z,99941.00
2022-09-09T10:57:55.659Z,99942.00
2022-09-09T11:00:40.524Z,99931.00
2022-09-09T11:03:11.268Z,99930.00
2022-09-09T11:05:46.793Z,99937.00
2022-09-09T11:08:28.686Z,99940.00
2022-09-09T11:11:13.356Z,99928.00
2022-09-09T11:13:54.922Z,99930.00
2022-09-09T11:17:04.106Z,99932.00
2022-09-09T11:19:46.925Z,99932.00
2022-09-09T11:23:03.959Z,99934.00
2022-09-09T11:26:10.566Z,99934.00
2022-09-09T11:29:09.418Z,99934.00
2022-09-09T11:31:46.593Z,99939.00
2022-09-09T11:35:17.505Z,99945.00
2022-09-09T11:38:09.572Z,99935.00
2022-09-09T11:41:30.016Z,99939.00
2022-09-09T11:43:58.309Z,99944.00
2022-09-09T11:46:39.515Z,99936.00
2022-09-09T11:49:24.552Z,99941.00
2022-09-09T11:51:53.178Z,99942.00
2022-09-09T11:54:49.421Z,99929.00
2022-09-09T11:57:37.348Z,99936.00
2022-09-09T12:00:09.412Z,99925.00
2022-09-09T12:02:52.950Z,99927.00
2022-09-09T12:05:23.355Z,99939.00
2022-09-09T12:08:31.272Z,99927.00
2022-09-09T12:11:15.435Z,99922.00
2022-09-09T12:14:08.289Z,99921.00
2022-09-09T12:21:09.231Z,99919.00
2022-09-09T12:33:08.678Z,99926.00
2022-09-09T12:36:00.192Z,99913.00
2022-09-09T12:41:44.888Z,99908.00
2022-09-09T12:44:13.258Z,99920.00
2022-09-09T12:46:47.738Z,99915.00
2022-09-09T12:49:40.102Z,99916.00
2022-09-09T12:52:21.911Z,99917.00
2022-09-09T12:54:55.349Z,99926.00
2022-09-09T12:58:50.666Z,99927.00
2022-09-09T13:01:36.551Z,99921.00
2022-09-09T13:05:16.352Z,99933.00
2022-09-09T13:08:12.578Z,99924.00
2022-09-09T13:11:44.601Z,99919.00
2022-09-09T13:14:37.341Z,99929.00
2022-09-09T13:17:21.068Z,99916.00
2022-09-09T13:19:49.472Z,99917.00
2022-09-09T13:22:59.662Z,99921.00
2022-09-09T13:25:30.188Z,99917.00
2022-09-09T13:28:28.116Z,99913.00
2022-09-09T13:31:27.579Z,99915.00
2022-09-09T13:33:56.353Z,99913.00
2022-09-09T13:36:36.375Z,99908.00
2022-09-09T13:39:21.947Z,99906.00
2022-09-09T13:41:52.890Z,99901.00
2022-09-09T13:44:37.199Z,99914.00
2022-09-09T13:47:22.818Z,99913.00
2022-09-09T13:49:53.088Z,99892.00
2022-09-09T13:52:30.428Z,99890.00
2022-09-09T13:55:00.230Z,99890.00
2022-09-09T13:57:30.654Z,99887.00
2022-09-09T14:00:06.328Z,99887.00
2022-09-09T14:02:37.262Z,99899.00
2022-09-09T14:05:09.507Z,99892.00
2022-09-09T14:07:42.834Z,99889.00
2022-09-09T14:11:36.223Z,99899.00
2022-09-09T14:18:16.842Z,99892.00
2022-09-09T14:21:02.600Z,99882.00
2022-09-09T14:23:32.041Z,99875.00
2022-09-09T14:26:00.422Z,99885.00
2022-09-09T14:28:54.838Z,99879.00
2022-09-09T14:31:19.201Z,99878.00
2022-09-09T14:33:48.102Z,99886.00
2022-09-09T14:36:16.467Z,99888.00
2022-09-09T14:38:44.559Z,99880.00
2022-09-09T14:41:16.072Z,99884.00
2022-09-09T14:43:44.802Z,99879.00
2022-09-09T14:46:16.645Z,99891.00
2022-09-09T14:48:49.902Z,99894.00
2022-09-09T14:51:30.425Z,99891.00
2022-09-09T14:54:02.324Z,99894.00
2022-09-09T14:56:37.365Z,99884.00
2022-09-09T14:59:06.193Z,99890.00
2022-09-09T15:01:35.447Z,99893.00
2022-09-09T15:04:08.022Z,99878.00
2022-09-09T15:06:43.175Z,99882.00
2022-09-09T15:09:12.502Z,99889.00
2022-09-09T15:11:40.499Z,99890.00
2022-09-09T15:14:10.408Z,99881.00
2022-09-09T15:16:40.245Z,99890.00
2022-09-09T15:19:10.171Z,99883.00
2022-09-09T15:21:56.428Z,99893.00
2022-09-09T15:24:27.910Z,99887.00
2022-09-09T15:27:08.944Z,99890.00
2022-09-09T15:29:36.850Z,99893.00
2022-09-09T15:34:57.498Z,99895.00
2022-09-09T15:37:25.789Z,99885.00
2022-09-09T15:39:53.743Z,99879.00
2022-09-09T15:42:21.594Z,99887.00
2022-09-09T15:44:49.537Z,99890.00
2022-09-09T15:47:17.915Z,99887.00
2022-09-09T15:49:46.194Z,99885.00
2022-09-09T15:52:14.155Z,99881.00
2022-09-09T15:54:44.341Z,99890.00
2022-09-09T15:57:14.581Z,99898.00
2022-09-09T15:59:46.539Z,99886.00
2022-09-09T16:02:14.646Z,99882.00
2022-09-09T16:04:42.881Z,99897.00
2022-09-09T16:07:11.142Z,99894.00
2022-09-09T16:09:39.206Z,99894.00
2022-09-09T16:12:13.442Z,99893.00
2022-09-09T16:14:52.673Z,99899.00
2022-09-09T16:17:21.770Z,99899.00
2022-09-09T16:20:03.641Z,99889.00
2022-09-09T16:22:34.050Z,99902.00
2022-09-09T16:25:01.909Z,99902.00
2022-09-09T16:27:56.145Z,99898.00
2022-09-09T16:30:23.815Z,99902.00
2022-09-09T16:32:51.439Z,99908.00
2022-09-09T16:35:25.983Z,99897.00
2022-09-09T16:38:00.341Z,99911.00
2022-09-09T16:40:31.687Z,99898.00
2022-09-09T16:42:59.413Z,99907.00
2022-09-09T16:45:27.243Z,99906.00
2022-09-09T16:47:55.359Z,99902.00
2022-09-09T16:50:26.576Z,99888.00
2022-09-09T16:52:57.395Z,99898.00
2022-09-09T16:55:25.456Z,99903.00
2022-09-09T16:57:53.251Z,99909.00
2022-09-09T17:00:21.108Z,99904.00
2022-09-09T17:02:49.127Z,99910.00
2022-09-09T17:05:17.701Z,99910.00
2022-09-09T17:07:45.691Z,99916.00
2022-09-09T17:10:13.538Z,99916.00
2022-09-09T17:12:45.664Z,99917.00
2022-09-09T17:15:13.486Z,99933.00
2022-09-09T17:17:45.553Z,99926.00
2022-09-09T17:20:13.362Z,99916.00
2022-09-09T17:23:30.144Z,99925.00
2022-09-09T17:26:02.037Z,99923.00
2022-09-09T17:28:32.581Z,99916.00
2022-09-09T17:31:04.198Z,99925.00
2022-09-09T17:33:43.049Z,99923.00
2022-09-09T17:36:23.396Z,99928.00
2022-09-09T17:38:52.584Z,99916.00
2022-09-09T17:41:25.873Z,99923.00
2022-09-09T17:44:05.087Z,99921.00
2022-09-09T17:46:37.546Z,99922.00
2022-09-09T17:49:13.225Z,99931.00
2022-09-09T17:51:42.751Z,99927.00
2022-09-09T17:54:22.535Z,99915.00
2022-09-09T17:56:51.065Z,99920.00
2022-09-09T17:59:19.877Z,99921.00
2022-09-09T18:01:51.556Z,99920.00
2022-09-09T18:04:20.183Z,99914.00
2022-09-09T18:07:00.982Z,99927.00
2022-09-09T18:09:34.012Z,99922.00
2022-09-09T18:12:02.766Z,99924.00
2022-09-09T18:14:33.490Z,99927.00
2022-09-09T18:17:07.158Z,99927.00
2022-09-09T18:19:35.451Z,99922.00
2022-09-09T18:22:07.434Z,99928.00
2022-09-09T18:24:36.630Z,99929.00
2022-09-09T18:27:04.641Z,99931.00
2022-09-09T18:29:32.386Z,99935.00
2022-09-09T18:32:00.095Z,99939.00
2022-09-09T18:34:28.996Z,99938.00
2022-09-09T18:36:57.423Z,99942.00
2022-09-09T18:39:29.158Z,99944.00
2022-09-09T18:42:00.879Z,99946.00
2022-09-09T18:44:33.297Z,99953.00
2022-09-09T18:47:01.758Z,99951.00
2022-09-09T18:49:30.068Z,99954.00
2022-09-09T18:51:58.200Z,99951.00
2022-09-09T18:54:30.660Z,99954.00
2022-09-09T18:57:01.071Z,99966.00
2022-09-09T19:00:44.899Z,99964.00
2022-09-09T19:03:58.942Z,99954.00
2022-09-09T19:06:58.580Z,99953.00
2022-09-09T19:09:40.964Z,99948.00
2022-09-09T19:12:15.993Z,99951.00
2022-09-09T19:15:46.763Z,99952.00
2022-09-09T19:19:49.202Z,99961.00
2022-09-09T19:23:26.839Z,99947.00
2022-09-09T19:25:59.023Z,99955.00
2022-09-09T19:28:29.924Z,99959.00
2022-09-09T19:31:17.232Z,99964.00
2022-09-09T19:33:47.558Z,99967.00
2022-09-09T19:36:19.041Z,99966.00
2022-09-09T19:38:49.184Z,99959.00
2022-09-09T19:41:24.878Z,99957.00
2022-09-09T19:43:58.660Z,99959.00
2022-09-09T19:46:29.794Z,99947.00
2022-09-09T19:48:58.811Z,99966.00
2022-09-09T19:51:29.987Z,99961.00
2022-09-09T19:54:03.115Z,99959.00
2022-09-09T19:56:33.936Z,99950.00
2022-09-09T19:59:04.598Z,99965.00
2022-09-09T20:01:40.084Z,99954.00
2022-09-09T20:04:08.994Z,99957.00
2022-09-09T20:06:45.471Z,99964.00
2022-09-09T20:09:16.826Z,99972.00
2022-09-09T20:11:48.018Z,99972.00
2022-09-09T20:14:17.503Z,99976.00
2022-09-09T20:16:46.737Z,99978.00
2022-09-09T20:19:18.901Z,99978.00
2022-09-09T20:21:52.403Z,99989.00
2022-09-09T20:24:23.479Z,99980.00
2022-09-09T20:26:51.103Z,99983.00
2022-09-09T20:29:20.924Z,100000.00
2022-09-09T20:31:49.549Z,99997.00
2022-09-09T20:34:30.288Z,99989.00
2022-09-09T20:37:02.890Z,99998.00
2022-09-09T20:39:31.063Z,100002.00
2022-09-09T20:42:02.888Z,99993.00
2022-09-09T20:44:31.765Z,99995.00
2022-09-09T20:47:06.888Z,100012.00
2022-09-09T20:49:35.613Z,99995.00
2022-09-09T20:52:12.777Z,100012.00
2022-09-09T20:54:41.167Z,100008.00
2022-09-09T20:57:15.089Z,100005.00
2022-09-09T20:59:48.403Z,100024.00
2022-09-09T21:02:18.491Z,100012.00
2022-09-09T21:04:47.444Z,100014.00
2022-09-09T21:07:15.458Z,100013.00
2022-09-09T21:09:46.303Z,100006.00
2022-09-09T21:12:19.430Z,100011.00
2022-09-09T21:14:53.379Z,100004.00
2022-09-09T21:17:22.230Z,100017.00
2022-09-09T21:20:05.070Z,100024.00
2022-09-09T21:22:33.824Z,100012.00
2022-09-09T21:25:04.465Z,100020.00
2022-09-09T21:27:37.198Z,100014.00
2022-09-09T21:30:13.504Z,100023.00
2022-09-09T21:32:42.462Z,100022.00
2022-09-09T21:35:17.283Z,100021.00
2022-09-09T21:37:45.753Z,100014.00
2022-09-09T21:40:13.380Z,100016.00
2022-09-09T21:42:41.033Z,100022.00
2022-09-09T21:45:10.683Z,100022.00
2022-09-09T21:47:41.088Z,100024.00
2022-09-09T21:50:09.113Z,100026.00
2022-09-09T21:52:36.952Z,100024.00
2022-09-09T21:55:06.097Z,100021.00
2022-09-09T21:57:34.696Z,100016.00
2022-09-09T22:00:13.734Z,100016.00
2022-09-09T22:02:42.139Z,100013.00
2022-09-09T22:05:10.194Z,100023.00
2022-09-09T22:07:37.963Z,100022.00
2022-09-09T22:10:07.445Z,100010.00
2022-09-09T22:12:35.597Z,100022.00
2022-09-09T22:15:04.388Z,100027.00
2022-09-09T22:17:32.062Z,100022.00
2022-09-09T22:19:59.668Z,100027.00
2022-09-09T22:22:27.427Z,100024.00
2022-09-09T22:24:54.967Z,100018.00
2022-09-09T22:27:22.373Z,100021.00
2022-09-09T22:29:49.760Z,100017.00
2022-09-09T22:32:20.401Z,100016.00
2022-09-09T22:34:48.072Z,100008.00
2022-09-09T22:37:18.995Z,100011.00
2022-09-09T22:39:47.427Z,100010.00
2022-09-09T22:42:15.410Z,100014.00
2022-09-09T22:44:46.058Z,100020.00
2022-09-09T22:47:14.051Z,100011.00
2022-09-09T22:49:42.207Z,100014.00
2022-09-09T22:52:11.120Z,100005.00
2022-09-09T22:54:41.673Z,100011.00
2022-09-09T22:57:09.785Z,100015.00
2022-09-09T22:59:37.536Z,100008.00
2022-09-09T23:02:08.178Z,100010.00
2022-09-09T23:04:37.255Z,100009.00
2022-09-09T23:07:07.016Z,100004.00
2022-09-09T23:09:34.767Z,99993.00
2022-09-09T23:12:05.533Z,99989.00
2022-09-09T23:14:34.648Z,99996.00
2022-09-09T23:17:04.773Z,99995.00
2022-09-09T23:19:32.498Z,100001.00
2022-09-09T23:22:00.963Z,99996.00
2022-09-09T23:24:29.374Z,100000.00
2022-09-09T23:26:56.770Z,99996.00
2022-09-09T23:29:27.064Z,99991.00
2022-09-09T23:31:54.787Z,99998.00
2022-09-09T23:34:22.327Z,99996.00
2022-09-09T23:36:49.794Z,100003.00
2022-09-09T23:39:17.610Z,100004.00
2022-09-09T23:41:45.081Z,99999.00
2022-09-09T23:44:12.972Z,99996.00
2022-09-09T23:47:07.508Z,99994.00
2022-09-09T23:49:37.425Z,99999.00
2022-09-09T23:52:06.825Z,100005.00
2022-09-09T23:54:35.476Z,100010.00
2022-09-09T23:57:04.190Z,100000.00
2022-09-09T23:59:35.349Z,100013.00
